createdAt,value
2018-04-17T00:00:56.653Z,35.33
2018-04-17T00:03:23.990Z,34.43
2018-04-17T00:05:51.188Z,36.27
2018-04-17T00:08:18.341Z,35.57
2018-04-17T00:10:44.831Z,36.97
2018-04-17T00:13:12.639Z,34.57
2018-04-17T00:15:41.289Z,36.90
2018-04-17T00:18:09.410Z,38.00
2018-04-17T00:20:36.702Z,37.90
2018-04-17T00:23:03.736Z,39.10
2018-04-17T00:25:30.997Z,40.43
2018-04-17T00:27:57.442Z,42.17
2018-04-17T00:30:23.819Z,41.67
2018-04-17T00:32:50.341Z,40.57
2018-04-17T00:35:17.710Z,43.67
2018-04-17T00:37:44.130Z,46.60
2018-04-17T00:40:11.269Z,42.43
2018-04-17T00:42:37.856Z,41.20
2018-04-17T00:45:04.400Z,48.40
2018-04-17T00:47:30.812Z,45.07
2018-04-17T00:49:57.217Z,45.97
2018-04-17T00:52:24.366Z,48.93
2018-04-17T00:54:50.793Z,50.40
2018-04-17T00:57:18.057Z,48.20
2018-04-17T00:59:46.256Z,45.70
2018-04-17T01:02:12.886Z,43.23
2018-04-17T01:04:40.037Z,44.37
2018-04-17T01:07:06.529Z,43.40
2018-04-17T01:09:33.704Z,42.47
2018-04-17T01:12:00.040Z,42.60
2018-04-17T01:14:26.616Z,44.30
2018-04-17T01:16:53.588Z,41.73
2018-04-17T01:19:19.987Z,43.33
2018-04-17T01:21:46.361Z,44.00
2018-04-17T01:24:13.346Z,41.60
2018-04-17T01:26:39.703Z,41.20
2018-04-17T01:29:06.887Z,42.67
2018-04-17T01:31:33.346Z,42.27
2018-04-17T01:33:59.761Z,44.87
2018-04-17T01:36:26.182Z,40.43
2018-04-17T01:38:52.637Z,40.27
2018-04-17T01:41:19.174Z,46.07
2018-04-17T01:43:47.536Z,43.80
2018-04-17T01:46:14.708Z,42.90
2018-04-17T01:48:41.461Z,44.40
2018-04-17T01:51:09.071Z,44.37
2018-04-17T01:53:35.409Z,43.80
2018-04-17T01:56:01.910Z,41.90
2018-04-17T01:58:28.694Z,41.70
2018-04-17T02:00:55.448Z,45.00
2018-04-17T02:03:22.984Z,42.60
2018-04-17T02:05:49.390Z,43.77
2018-04-17T02:08:15.745Z,40.47
2018-04-17T02:10:42.111Z,43.47
2018-04-17T02:13:09.356Z,39.87
2018-04-17T02:15:35.795Z,42.07
2018-04-17T02:18:02.961Z,40.50
2018-04-17T02:20:30.113Z,43.00
2018-04-17T02:22:57.263Z,39.67
2018-04-17T02:25:24.480Z,38.70
2018-04-17T02:27:51.661Z,38.60
2018-04-17T02:30:18.208Z,40.53
2018-04-17T02:32:44.625Z,42.07
2018-04-17T02:35:11.431Z,36.97
2018-04-17T02:37:37.911Z,33.57
2018-04-17T02:40:04.314Z,33.73
2018-04-17T02:42:30.824Z,34.20
2018-04-17T02:44:57.579Z,29.33
2018-04-17T02:47:23.996Z,31.90
2018-04-17T02:49:50.697Z,31.90
2018-04-17T02:52:17.111Z,27.07
2018-04-17T02:54:43.684Z,27.10
2018-04-17T02:57:10.149Z,26.00
2018-04-17T02:59:36.762Z,26.30
2018-04-17T03:02:03.272Z,22.53
2018-04-17T03:04:30.581Z,21.87
2018-04-17T03:06:57.009Z,21.47
2018-04-17T03:09:23.414Z,19.20
2018-04-17T03:11:49.890Z,18.37
2018-04-17T03:14:16.329Z,15.70
2018-04-17T03:16:42.743Z,17.70
2018-04-17T03:19:09.145Z,16.60
2018-04-17T03:21:35.572Z,15.90
2018-04-17T03:24:01.983Z,18.00
2018-04-17T03:26:28.410Z,15.40
2018-04-17T03:28:54.941Z,15.73
2018-04-17T03:31:21.352Z,15.00
2018-04-17T03:33:47.753Z,14.60
2018-04-17T03:36:14.140Z,14.70
2018-04-17T03:38:40.511Z,13.30
2018-04-17T03:41:07.219Z,14.50
2018-04-17T03:43:33.683Z,14.30
2018-04-17T03:46:00.218Z,15.70
2018-04-17T03:51:24.961Z,13.27
2018-04-17T04:08:46.033Z,12.07
2018-04-17T04:11:12.411Z,14.87
2018-04-17T04:13:38.859Z,12.23
2018-04-17T04:16:06.284Z,12.77
2018-04-17T04:18:45.793Z,14.90
2018-04-17T04:21:24.300Z,13.20
2018-04-17T04:24:03.160Z,13.03
2018-04-17T04:26:30.581Z,13.63
2018-04-17T04:28:57.803Z,14.90
2018-04-17T04:31:24.735Z,14.40
2018-04-17T04:33:51.937Z,13.03
2018-04-17T04:36:18.689Z,12.67
2018-04-17T04:38:45.931Z,15.13
2018-04-17T04:41:12.457Z,13.60
2018-04-17T04:43:39.300Z,15.20
2018-04-17T04:46:05.755Z,15.50
2018-04-17T04:48:32.274Z,15.00
2018-04-17T04:51:00.435Z,16.43
2018-04-17T04:53:27.622Z,15.23
2018-04-17T04:55:54.344Z,14.47
2018-04-17T04:58:20.844Z,16.10
2018-04-17T05:00:47.251Z,16.37
2018-04-17T05:03:13.958Z,15.67
2018-04-17T05:05:42.520Z,16.53
2018-04-17T05:08:10.106Z,18.47
2018-04-17T05:10:37.772Z,16.50
2018-04-17T05:13:06.142Z,15.33
2018-04-17T05:15:34.349Z,15.53
2018-04-17T05:18:00.758Z,15.53
2018-04-17T05:20:28.642Z,14.03
2018-04-17T05:22:55.078Z,14.73
2018-04-17T05:25:21.869Z,15.80
2018-04-17T05:27:49.057Z,14.87
2018-04-17T05:30:15.442Z,13.83
2018-04-17T05:32:42.009Z,13.77
2018-04-17T05:35:09.914Z,14.13
2018-04-17T05:37:37.245Z,12.40
2018-04-17T05:40:04.179Z,13.27
2018-04-17T05:42:30.852Z,13.47
2018-04-17T05:44:59.054Z,9.60
2018-04-17T05:47:25.917Z,10.47
2018-04-17T05:49:53.169Z,12.73
2018-04-17T05:52:20.484Z,10.60
2018-04-17T05:54:47.338Z,10.77
2018-04-17T05:57:14.263Z,8.93
2018-04-17T05:59:40.634Z,9.00
2018-04-17T06:02:10.941Z,9.80
2018-04-17T06:04:41.072Z,9.03
2018-04-17T06:07:11.408Z,9.40
2018-04-17T06:09:38.963Z,9.37
2018-04-17T06:12:07.959Z,7.40
2018-04-17T06:14:34.807Z,8.50
2018-04-17T06:17:03.668Z,9.00
2018-04-17T06:19:30.536Z,6.60
2018-04-17T06:21:57.106Z,6.80
2018-04-17T06:24:23.574Z,7.70
2018-04-17T06:26:50.479Z,6.57
2018-04-17T06:29:17.655Z,7.70
2018-04-17T06:31:44.160Z,7.40
2018-04-17T06:34:10.767Z,8.37
2018-04-17T06:36:37.643Z,5.67
2018-04-17T06:39:04.858Z,5.80
2018-04-17T06:41:31.603Z,4.83
2018-04-17T06:43:59.421Z,6.93
2018-04-17T06:46:26.263Z,6.30
2018-04-17T06:48:52.740Z,5.93
2018-04-17T06:51:19.154Z,7.03
2018-04-17T06:53:46.883Z,5.23
2018-04-17T06:56:13.573Z,6.40
2018-04-17T06:58:40.096Z,5.00
2018-04-17T07:01:08.224Z,5.00
2018-04-17T07:03:34.653Z,4.70
2018-04-17T07:06:01.837Z,4.73
2018-04-17T07:08:29.126Z,4.33
2018-04-17T07:10:55.645Z,5.07
2018-04-17T07:13:22.064Z,4.00
2018-04-17T07:15:48.791Z,5.13
2018-04-17T07:18:15.255Z,3.87
2018-04-17T07:20:41.677Z,4.33
2018-04-17T07:23:09.530Z,4.17
2018-04-17T07:25:38.324Z,3.63
2018-04-17T07:28:05.064Z,4.67
2018-04-17T07:30:31.508Z,4.57
2018-04-17T07:32:58.776Z,4.50
2018-04-17T07:35:26.134Z,3.80
2018-04-17T07:37:54.172Z,4.37
2018-04-17T07:40:21.343Z,5.10
2018-04-17T07:42:49.191Z,4.87
2018-04-17T07:45:15.861Z,4.93
2018-04-17T07:50:55.440Z,3.77
2018-04-17T07:53:23.553Z,3.13
2018-04-17T07:55:51.035Z,3.23
2018-04-17T07:58:18.813Z,3.60
2018-04-17T08:00:45.353Z,3.40
2018-04-17T08:03:13.077Z,2.63
2018-04-17T08:05:41.779Z,3.33
2018-04-17T08:08:08.343Z,3.30
2018-04-17T08:10:37.196Z,3.70
2018-04-17T08:13:05.915Z,3.23
2018-04-17T08:15:34.505Z,3.80
2018-04-17T08:18:01.797Z,3.80
2018-04-17T08:20:28.187Z,3.30
2018-04-17T08:22:55.752Z,3.00
2018-04-17T08:25:22.261Z,3.40
2018-04-17T08:27:49.583Z,3.30
2018-04-17T08:30:16.020Z,3.43
2018-04-17T08:32:43.352Z,3.53
2018-04-17T08:35:10.371Z,3.63
2018-04-17T08:37:37.940Z,3.50
2018-04-17T08:40:05.295Z,3.83
2018-04-17T08:42:32.074Z,3.80
2018-04-17T08:45:00.340Z,4.13
2018-04-17T08:47:28.351Z,3.00
2018-04-17T08:49:54.763Z,4.10
2018-04-17T08:52:21.379Z,4.40
2018-04-17T08:54:49.482Z,4.30
2018-04-17T08:57:17.114Z,3.80
2018-04-17T08:59:44.293Z,4.13
2018-04-17T09:02:12.559Z,4.10
2018-04-17T09:04:40.733Z,3.10
2018-04-17T09:07:07.994Z,4.90
2018-04-17T09:09:34.856Z,3.67
2018-04-17T09:12:01.438Z,3.40
2018-04-17T09:14:28.790Z,4.00
2018-04-17T09:16:55.963Z,4.50
2018-04-17T09:19:22.513Z,3.90
2018-04-17T09:21:49.250Z,4.30
2018-04-17T09:24:16.307Z,4.23
2018-04-17T09:26:43.317Z,3.90
2018-04-17T09:29:10.134Z,3.47
2018-04-17T09:31:36.806Z,4.90
2018-04-17T09:34:03.611Z,3.30
2018-04-17T09:36:31.204Z,4.10
2018-04-17T09:38:58.844Z,4.20
2018-04-17T09:41:25.508Z,4.90
2018-04-17T09:43:52.480Z,5.67
2018-04-17T09:46:20.119Z,4.30
2018-04-17T09:48:48.273Z,4.83
2018-04-17T09:51:14.750Z,5.97
2018-04-17T09:53:43.113Z,5.13
2018-04-17T09:56:10.046Z,4.80
2018-04-17T09:58:37.376Z,6.70
2018-04-17T10:01:11.315Z,5.10
2018-04-17T10:03:39.318Z,4.90
2018-04-17T10:06:06.123Z,4.90
2018-04-17T10:08:32.534Z,5.77
2018-04-17T10:10:59.911Z,5.17
2018-04-17T10:13:27.294Z,6.23
2018-04-17T10:15:53.668Z,5.17
2018-04-17T10:18:20.164Z,5.60
2018-04-17T10:20:47.124Z,5.37
2018-04-17T10:23:14.360Z,5.30
2018-04-17T10:25:42.102Z,4.90
2018-04-17T10:28:09.718Z,5.07
2018-04-17T10:30:39.789Z,5.27
2018-04-17T10:33:08.089Z,5.37
2018-04-17T10:35:36.229Z,3.57
2018-04-17T10:38:02.992Z,4.80
2018-04-17T10:40:29.735Z,5.30
2018-04-17T10:42:57.747Z,4.43
2018-04-17T10:45:25.299Z,5.37
2018-04-17T10:47:51.992Z,4.40
2018-04-17T10:50:20.214Z,4.10
2018-04-17T10:52:46.696Z,4.27
2018-04-17T10:55:14.466Z,6.50
2018-04-17T10:57:40.984Z,7.83
2018-04-17T11:00:09.245Z,5.97
2018-04-17T11:02:36.057Z,7.50
2018-04-17T11:05:02.664Z,5.90
2018-04-17T11:07:29.428Z,6.67
2018-04-17T11:09:56.679Z,5.70
2018-04-17T11:12:25.174Z,7.23
2018-04-17T11:14:52.386Z,6.10
2018-04-17T11:17:20.146Z,5.00
2018-04-17T11:19:47.366Z,4.90
2018-04-17T11:22:15.525Z,6.80
2018-04-17T11:24:43.633Z,6.30
2018-04-17T11:27:10.045Z,6.30
2018-04-17T11:29:36.881Z,6.20
2018-04-17T11:32:05.204Z,6.00
2018-04-17T11:34:31.605Z,5.43
2018-04-17T11:36:58.465Z,5.70
2018-04-17T11:39:25.037Z,5.20
2018-04-17T11:41:51.583Z,5.33
2018-04-17T11:44:18.896Z,5.73
2018-04-17T11:46:47.092Z,4.00
2018-04-17T11:49:13.615Z,6.23
2018-04-17T11:51:40.799Z,4.53
2018-04-17T11:54:07.359Z,5.20
2018-04-17T11:56:34.772Z,5.50
2018-04-17T11:59:01.410Z,5.87
2018-04-17T12:01:29.613Z,5.43
2018-04-17T12:03:56.107Z,4.60
2018-04-17T12:06:22.756Z,5.20
2018-04-17T12:08:49.527Z,5.90
2018-04-17T12:11:16.570Z,4.30
2018-04-17T12:13:44.684Z,4.63
2018-04-17T12:16:11.587Z,5.03
2018-04-17T12:18:38.094Z,3.70
2018-04-17T12:21:04.671Z,4.73
2018-04-17T12:23:31.682Z,7.20
2018-04-17T12:25:58.102Z,5.57
2018-04-17T12:28:26.010Z,4.33
2018-04-17T12:30:54.046Z,5.20
2018-04-17T12:33:20.813Z,5.30
2018-04-17T12:35:48.955Z,5.70
2018-04-17T12:38:15.406Z,4.73
2018-04-17T12:40:41.769Z,4.90
2018-04-17T12:43:09.711Z,5.73
2018-04-17T12:45:37.969Z,4.50
2018-04-17T12:48:04.766Z,5.07
2018-04-17T12:50:32.874Z,5.07
2018-04-17T12:53:00.886Z,4.70
2018-04-17T12:55:29.112Z,4.10
2018-04-17T12:57:56.806Z,4.00
2018-04-17T13:00:23.551Z,5.00
2018-04-17T13:02:50.766Z,4.00
2018-04-17T13:05:18.869Z,4.33
2018-04-17T13:07:45.592Z,4.80
2018-04-17T13:10:14.384Z,6.07
2018-04-17T13:12:42.538Z,5.40
2018-04-17T13:15:10.796Z,4.27
2018-04-17T13:17:39.956Z,5.10
2018-04-17T13:20:06.415Z,5.57
2018-04-17T13:22:32.819Z,5.43
2018-04-17T13:25:00.348Z,4.60
2018-04-17T13:27:28.550Z,6.23
2018-04-17T13:29:55.726Z,5.00
2018-04-17T13:32:22.149Z,5.77
2018-04-17T13:34:48.995Z,5.10
2018-04-17T13:37:17.019Z,5.33
2018-04-17T13:39:44.160Z,5.10
2018-04-17T13:42:12.269Z,5.80
2018-04-17T13:44:39.729Z,6.33
2018-04-17T13:47:07.906Z,5.33
2018-04-17T13:49:35.829Z,5.37
2018-04-17T13:52:03.074Z,5.30
2018-04-17T13:54:30.332Z,5.30
2018-04-17T13:56:58.547Z,4.90
2018-04-17T13:59:25.042Z,5.93
2018-04-17T14:01:51.681Z,6.03
2018-04-17T14:04:19.076Z,5.60
2018-04-17T14:06:45.679Z,8.00
2018-04-17T14:09:13.821Z,4.40
2018-04-17T14:11:40.341Z,5.47
2018-04-17T14:14:06.830Z,4.60
2018-04-17T14:16:34.148Z,5.43
2018-04-17T14:19:00.850Z,4.27
2018-04-17T14:21:28.974Z,4.47
2018-04-17T14:23:55.399Z,6.23
2018-04-17T14:26:21.961Z,4.60
2018-04-17T14:28:48.910Z,5.27
2018-04-17T14:31:17.194Z,5.80
2018-04-17T14:33:46.171Z,5.10
2018-04-17T14:36:12.796Z,5.97
2018-04-17T14:38:40.058Z,5.30
2018-04-17T14:41:07.347Z,5.30
2018-04-17T14:43:34.197Z,5.70
2018-04-17T14:46:01.077Z,5.00
2018-04-17T14:48:29.222Z,4.77
2018-04-17T14:50:57.143Z,4.70
2018-04-17T14:53:24.227Z,5.50
2018-04-17T14:55:50.783Z,6.43
2018-04-17T14:58:18.347Z,4.57
2018-04-17T15:00:46.256Z,5.77
2018-04-17T15:03:12.993Z,5.70
2018-04-17T15:05:39.704Z,4.63
2018-04-17T15:08:07.888Z,5.00
2018-04-17T15:10:34.775Z,5.33
2018-04-17T15:13:01.653Z,5.80
2018-04-17T15:15:28.952Z,4.77
2018-04-17T15:17:55.381Z,5.90
2018-04-17T15:20:23.149Z,5.10
2018-04-17T15:22:51.349Z,5.10
2018-04-17T15:25:18.191Z,5.80
2018-04-17T15:27:46.455Z,4.13
2018-04-17T15:30:14.237Z,4.77
2018-04-17T15:32:40.822Z,5.47
2018-04-17T15:35:07.938Z,5.33
2018-04-17T15:37:34.328Z,5.03
2018-04-17T15:40:01.677Z,4.40
2018-04-17T15:42:28.080Z,4.43
2018-04-17T15:44:55.548Z,5.30
2018-04-17T15:47:22.701Z,4.70
2018-04-17T15:49:49.248Z,4.07
2018-04-17T15:52:17.353Z,5.07
2018-04-17T15:54:43.849Z,4.70
2018-04-17T15:57:11.394Z,4.80
2018-04-17T15:59:39.367Z,5.23
2018-04-17T16:02:09.955Z,4.40
2018-04-17T16:04:39.580Z,4.73
2018-04-17T16:07:06.363Z,4.67
2018-04-17T16:09:34.077Z,5.30
2018-04-17T16:12:00.830Z,4.57
2018-04-17T16:14:27.320Z,4.43
2018-04-17T16:16:55.605Z,4.97
2018-04-17T16:19:22.173Z,4.63
2018-04-17T16:21:50.355Z,4.33
2018-04-17T16:24:19.050Z,4.90
2018-04-17T16:26:47.270Z,4.67
2018-04-17T16:29:15.443Z,5.20
2018-04-17T16:31:42.691Z,5.03
2018-04-17T16:34:09.881Z,4.77
2018-04-17T16:36:37.776Z,4.33
2018-04-17T16:39:05.567Z,4.70
2018-04-17T16:41:33.113Z,4.87
2018-04-17T16:44:01.916Z,4.60
2018-04-17T16:46:29.210Z,4.73
2018-04-17T16:48:57.016Z,6.13
2018-04-17T16:51:23.856Z,4.37
2018-04-17T16:53:51.385Z,4.00
2018-04-17T16:56:17.808Z,5.67
2018-04-17T16:58:45.942Z,5.73
2018-04-17T17:01:12.523Z,5.07
2018-04-17T17:03:39.489Z,4.77
2018-04-17T17:06:06.093Z,5.23
2018-04-17T17:08:32.595Z,5.33
2018-04-17T17:10:59.521Z,6.47
2018-04-17T17:13:27.345Z,5.80
2018-04-17T17:15:53.855Z,6.10
2018-04-17T17:18:20.247Z,5.17
2018-04-17T17:20:47.031Z,5.30
2018-04-17T17:23:13.971Z,5.83
2018-04-17T17:25:42.166Z,5.40
2018-04-17T17:28:08.979Z,5.63
2018-04-17T17:30:36.219Z,6.37
2018-04-17T17:33:04.306Z,5.70
2018-04-17T17:35:32.419Z,5.40
2018-04-17T17:37:59.427Z,6.33
2018-04-17T17:40:27.522Z,5.33
2018-04-17T17:42:54.211Z,5.23
2018-04-17T17:45:20.789Z,5.33
2018-04-17T17:47:47.231Z,7.53
2018-04-17T17:50:14.481Z,6.40
2018-04-17T17:52:41.023Z,11.30
2018-04-17T17:55:08.572Z,8.70
2018-04-17T17:57:36.773Z,9.13
2018-04-17T18:00:05.154Z,7.50
2018-04-17T18:02:32.330Z,5.93
2018-04-17T18:04:59.689Z,7.73
2018-04-17T18:07:26.094Z,7.40
2018-04-17T18:09:53.335Z,6.30
2018-04-17T18:12:19.924Z,6.57
2018-04-17T18:14:46.536Z,6.70
2018-04-17T18:17:13.220Z,5.67
2018-04-17T18:19:42.020Z,6.77
2018-04-17T18:22:08.591Z,4.83
2018-04-17T18:24:35.251Z,5.30
2018-04-17T18:27:01.687Z,4.93
2018-04-17T18:29:29.999Z,6.70
2018-04-17T18:31:57.086Z,5.77
2018-04-17T18:34:25.314Z,5.27
2018-04-17T18:36:51.726Z,6.27
2018-04-17T18:39:18.192Z,5.30
2018-04-17T18:41:45.465Z,5.20
2018-04-17T18:44:12.200Z,5.67
2018-04-17T18:46:40.560Z,6.30
2018-04-17T18:49:07.745Z,7.17
2018-04-17T18:51:34.675Z,6.27
2018-04-17T18:54:02.555Z,7.57
2018-04-17T18:56:30.228Z,8.93
2018-04-17T18:58:58.403Z,5.90
2018-04-17T19:01:25.012Z,8.00
2018-04-17T19:03:52.695Z,6.77
2018-04-17T19:06:19.664Z,8.50
2018-04-17T19:08:46.636Z,8.13
2018-04-17T19:11:13.587Z,6.43
2018-04-17T19:13:40.188Z,8.27
2018-04-17T19:16:07.473Z,8.53
2018-04-17T19:18:34.693Z,8.70
2018-04-17T19:21:01.262Z,8.87
2018-04-17T19:23:29.168Z,9.47
2018-04-17T19:25:56.350Z,8.93
2018-04-17T19:28:25.028Z,7.90
2018-04-17T19:30:52.061Z,10.00
2018-04-17T19:33:19.040Z,8.80
2018-04-17T19:35:46.171Z,8.47
2018-04-17T19:38:15.596Z,9.37
2018-04-17T19:40:42.093Z,9.77
2018-04-17T19:43:08.563Z,9.47
2018-04-17T19:45:35.085Z,10.77
2018-04-17T19:48:02.021Z,11.50
2018-04-17T19:50:29.362Z,11.50
2018-04-17T19:52:57.439Z,11.43
2018-04-17T19:55:24.422Z,11.63
2018-04-17T19:57:50.906Z,11.37
2018-04-17T20:00:18.393Z,11.40
2018-04-17T20:02:45.756Z,13.23
2018-04-17T20:05:14.041Z,11.87
2018-04-17T20:07:41.575Z,11.87
2018-04-17T20:10:08.414Z,12.07
2018-04-17T20:12:37.235Z,13.13
2018-04-17T20:15:05.229Z,12.10
2018-04-17T20:17:31.660Z,11.80
2018-04-17T20:19:58.151Z,12.20
2018-04-17T20:22:25.206Z,10.33
2018-04-17T20:24:52.200Z,9.57
2018-04-17T20:27:20.406Z,11.50
2018-04-17T20:29:46.863Z,11.60
2018-04-17T20:32:13.460Z,11.13
2018-04-17T20:34:39.944Z,11.07
2018-04-17T20:37:07.867Z,9.27
2018-04-17T20:39:35.401Z,10.73
2018-04-17T20:42:01.909Z,9.60
2018-04-17T20:44:28.925Z,10.10
2018-04-17T20:46:55.384Z,8.43
2018-04-17T20:49:23.055Z,9.80
2018-04-17T20:51:50.538Z,9.67
2018-04-17T20:54:17.012Z,11.07
2018-04-17T20:56:43.587Z,10.40
2018-04-17T20:59:10.119Z,8.83
2018-04-17T21:01:36.771Z,9.20
2018-04-17T21:04:03.991Z,9.60
2018-04-17T21:06:30.804Z,9.60
2018-04-17T21:08:57.493Z,9.00
2018-04-17T21:11:24.670Z,10.90
2018-04-17T21:13:52.921Z,8.10
2018-04-17T21:16:23.666Z,8.47
2018-04-17T21:18:50.214Z,7.30
2018-04-17T21:21:16.762Z,8.40
2018-04-17T21:23:43.138Z,8.10
2018-04-17T21:26:09.764Z,7.40
2018-04-17T21:28:37.384Z,8.23
2018-04-17T21:31:03.976Z,6.70
2018-04-17T21:33:30.400Z,6.07
2018-04-17T21:35:57.811Z,6.10
2018-04-17T21:38:24.413Z,6.43
2018-04-17T21:40:50.879Z,6.70
2018-04-17T21:43:17.353Z,5.93
2018-04-17T21:45:43.747Z,6.70
2018-04-17T21:48:10.997Z,7.60
2018-04-17T21:50:38.321Z,7.67
2018-04-17T21:53:04.740Z,8.33
2018-04-17T21:55:31.416Z,6.87
2018-04-17T21:57:57.913Z,7.30
2018-04-17T22:00:24.876Z,7.03
2018-04-17T22:02:54.374Z,8.50
2018-04-17T22:05:23.554Z,7.30
2018-04-17T22:07:51.524Z,7.77
2018-04-17T22:10:18.760Z,9.17
2018-04-17T22:12:46.141Z,9.13
2018-04-17T22:15:14.246Z,8.03
2018-04-17T22:17:41.514Z,8.90
2018-04-17T22:20:08.889Z,8.33
2018-04-17T22:22:35.309Z,8.97
2018-04-17T22:25:06.074Z,8.07
2018-04-17T22:27:33.410Z,8.40
2018-04-17T22:30:00.270Z,8.10
2018-04-17T22:32:26.658Z,8.43
2018-04-17T22:34:53.086Z,8.63
2018-04-17T22:37:19.541Z,8.63
2018-04-17T22:39:46.904Z,8.97
2018-04-17T22:42:13.408Z,8.10
2018-04-17T22:44:39.837Z,8.67
2018-04-17T22:47:06.398Z,9.50
2018-04-17T22:49:32.886Z,7.50
2018-04-17T22:52:00.101Z,9.27
2018-04-17T22:54:26.699Z,11.20
2018-04-17T22:56:53.111Z,7.57
2018-04-17T22:59:19.502Z,8.90
2018-04-17T23:01:47.624Z,7.80
2018-04-17T23:04:14.643Z,8.00
2018-04-17T23:06:41.440Z,8.20
2018-04-17T23:09:07.875Z,8.70
2018-04-17T23:11:35.089Z,8.60
2018-04-17T23:14:01.471Z,8.90
2018-04-17T23:16:28.559Z,8.53
2018-04-17T23:18:54.946Z,7.87
2018-04-17T23:21:21.361Z,8.87
2018-04-17T23:23:47.816Z,7.40
2018-04-17T23:26:14.690Z,8.63
2018-04-17T23:28:41.136Z,8.20
2018-04-17T23:31:08.017Z,7.90
2018-04-17T23:33:34.386Z,9.20
2018-04-17T23:36:00.738Z,8.20
2018-04-17T23:38:27.142Z,7.80
2018-04-17T23:40:53.524Z,8.93
2018-04-17T23:43:19.919Z,8.97
2018-04-17T23:45:46.292Z,8.50
2018-04-17T23:48:12.675Z,9.17
2018-04-17T23:50:39.746Z,10.10
2018-04-17T23:53:06.223Z,8.67
2018-04-17T23:55:33.431Z,8.37
2018-04-17T23:58:00.172Z,9.13
